createdAt,value
2022-11-29T00:02:20.933Z,62.00
2022-11-29T00:04:47.609Z,62.10
2022-11-29T00:07:14.288Z,62.00
2022-11-29T00:09:41.001Z,62.10
2022-11-29T00:12:07.669Z,62.00
2022-11-29T00:14:34.330Z,62.00
2022-11-29T00:17:01.072Z,62.10
2022-11-29T00:19:27.964Z,62.00
2022-11-29T00:21:54.854Z,62.00
2022-11-29T00:24:21.717Z,62.00
2022-11-29T00:26:48.583Z,62.00
2022-11-29T00:29:15.452Z,62.00
2022-11-29T00:31:42.091Z,62.00
2022-11-29T00:34:08.941Z,62.10
2022-11-29T00:36:35.793Z,62.00
2022-11-29T00:39:02.644Z,62.10
2022-11-29T00:41:29.298Z,62.10
2022-11-29T00:43:56.167Z,62.10
2022-11-29T00:46:22.842Z,62.10
2022-11-29T00:48:49.500Z,62.10
2022-11-29T00:51:16.161Z,62.10
2022-11-29T00:53:43.041Z,62.20
2022-11-29T00:56:09.896Z,62.10
2022-11-29T00:58:36.769Z,62.10
2022-11-29T01:01:03.471Z,62.10
2022-11-29T01:03:30.196Z,62.10
2022-11-29T01:05:57.057Z,62.10
2022-11-29T01:08:23.696Z,62.10
2022-11-29T01:10:50.341Z,62.10
2022-11-29T01:13:16.990Z,62.10
2022-11-29T01:15:43.633Z,62.10
2022-11-29T01:18:10.322Z,62.20
2022-11-29T01:20:36.988Z,62.10
2022-11-29T01:23:03.634Z,62.20
2022-11-29T01:25:30.302Z,62.10
2022-11-29T01:27:56.966Z,62.20
2022-11-29T01:30:23.629Z,62.10
2022-11-29T01:32:50.491Z,62.10
2022-11-29T01:35:17.149Z,62.20
2022-11-29T01:37:43.809Z,62.20
2022-11-29T01:40:10.462Z,62.20
2022-11-29T01:42:37.100Z,62.20
2022-11-29T01:45:03.754Z,62.10
2022-11-29T01:47:30.415Z,62.20
2022-11-29T01:49:57.086Z,62.20
2022-11-29T01:52:23.756Z,62.10
2022-11-29T01:54:50.607Z,62.20
2022-11-29T01:57:17.492Z,62.20
2022-11-29T01:59:44.347Z,62.10
2022-11-29T02:02:11.006Z,62.20
2022-11-29T02:04:37.910Z,62.20
2022-11-29T02:07:04.563Z,62.10
2022-11-29T02:09:31.244Z,62.20
2022-11-29T02:11:58.116Z,62.20
2022-11-29T02:14:24.763Z,62.10
2022-11-29T02:16:56.406Z,62.20
2022-11-29T02:19:23.400Z,62.20
2022-11-29T02:21:50.256Z,62.20
2022-11-29T02:24:16.926Z,62.20
2022-11-29T02:26:43.588Z,62.20
2022-11-29T02:29:10.251Z,62.10
2022-11-29T02:31:36.896Z,62.10
2022-11-29T02:34:03.777Z,62.20
2022-11-29T02:36:30.412Z,62.20
2022-11-29T02:38:57.059Z,62.20
2022-11-29T02:41:23.729Z,62.20
2022-11-29T02:43:50.364Z,62.20
2022-11-29T02:46:17.462Z,62.30
2022-11-29T02:48:44.363Z,62.30
2022-11-29T02:51:11.208Z,62.30
2022-11-29T02:53:38.074Z,62.40
2022-11-29T02:56:04.919Z,62.30
2022-11-29T02:58:31.559Z,62.30
2022-11-29T03:00:58.399Z,62.30
2022-11-29T03:03:25.056Z,62.30
2022-11-29T03:05:51.709Z,62.30
2022-11-29T03:08:18.364Z,62.30
2022-11-29T03:10:45.009Z,62.30
2022-11-29T03:13:11.668Z,62.30
2022-11-29T03:15:38.374Z,62.30
2022-11-29T03:18:05.243Z,62.40
2022-11-29T03:20:31.906Z,63.40
2022-11-29T03:22:58.585Z,62.40
2022-11-29T03:25:25.234Z,62.40
2022-11-29T03:27:51.892Z,62.40
2022-11-29T03:30:18.539Z,62.40
2022-11-29T03:32:45.187Z,62.40
2022-11-29T03:35:11.855Z,62.40
2022-11-29T03:37:38.502Z,62.40
2022-11-29T03:40:05.160Z,62.40
2022-11-29T03:42:31.805Z,62.40
2022-11-29T03:44:58.444Z,62.40
2022-11-29T03:47:25.087Z,62.40
2022-11-29T03:49:51.730Z,62.40
2022-11-29T03:52:18.376Z,62.40
2022-11-29T03:54:45.228Z,62.40
2022-11-29T03:57:12.028Z,62.40
2022-11-29T03:59:38.706Z,62.40
2022-11-29T04:02:05.550Z,62.40
2022-11-29T04:04:32.193Z,63.40
2022-11-29T04:06:58.863Z,62.40
2022-11-29T04:09:25.725Z,62.40
2022-11-29T04:11:52.364Z,62.40
2022-11-29T04:14:19.030Z,62.40
2022-11-29T04:16:45.700Z,62.40
2022-11-29T04:19:12.588Z,62.40
2022-11-29T04:21:39.252Z,62.40
2022-11-29T04:24:05.902Z,62.40
2022-11-29T04:26:34.964Z,62.40
2022-11-29T04:29:02.199Z,62.40
2022-11-29T04:31:29.128Z,62.40
2022-11-29T04:33:55.805Z,62.40
2022-11-29T04:36:22.666Z,62.40
2022-11-29T04:38:49.533Z,62.40
2022-11-29T04:41:16.168Z,62.40
2022-11-29T04:43:42.801Z,62.40
2022-11-29T04:46:09.696Z,62.40
2022-11-29T04:48:36.378Z,62.40
2022-11-29T04:51:03.050Z,62.40
2022-11-29T04:53:29.712Z,62.40
2022-11-29T04:55:56.582Z,62.40
2022-11-29T04:58:23.252Z,62.40
2022-11-29T05:00:49.887Z,62.40
2022-11-29T05:03:16.756Z,62.40
2022-11-29T05:05:43.415Z,62.40
2022-11-29T05:08:10.075Z,62.40
2022-11-29T05:10:36.935Z,62.40
2022-11-29T05:13:03.611Z,62.40
2022-11-29T05:15:30.474Z,62.40
2022-11-29T05:17:57.108Z,62.40
2022-11-29T05:20:23.760Z,62.40
2022-11-29T05:22:50.436Z,62.40
2022-11-29T05:25:17.088Z,62.40
2022-11-29T05:27:43.950Z,62.40
2022-11-29T05:30:10.804Z,62.40
2022-11-29T05:32:37.689Z,62.40
2022-11-29T05:35:04.343Z,62.40
2022-11-29T05:37:31.761Z,62.40
2022-11-29T05:39:58.419Z,62.40
2022-11-29T05:42:25.065Z,62.40
2022-11-29T05:44:51.929Z,62.40
2022-11-29T05:47:18.563Z,62.50
2022-11-29T05:49:45.228Z,62.40
2022-11-29T05:52:12.089Z,62.40
2022-11-29T05:54:38.960Z,62.40
2022-11-29T05:57:05.595Z,62.40
2022-11-29T05:59:32.220Z,62.40
2022-11-29T06:01:58.941Z,62.40
2022-11-29T06:04:25.678Z,62.40
2022-11-29T06:06:52.317Z,62.40
2022-11-29T06:09:18.956Z,62.40
2022-11-29T06:11:45.589Z,62.40
2022-11-29T06:14:12.232Z,62.40
2022-11-29T06:16:38.909Z,62.40
2022-11-29T06:19:05.764Z,62.40
2022-11-29T06:21:32.429Z,62.40
2022-11-29T06:23:59.076Z,62.50
2022-11-29T06:26:25.731Z,62.40
2022-11-29T06:28:52.397Z,62.40
2022-11-29T06:31:19.171Z,62.40
2022-11-29T06:33:45.861Z,62.40
2022-11-29T06:36:12.931Z,62.40
2022-11-29T06:38:39.587Z,62.40
2022-11-29T06:41:06.260Z,62.40
2022-11-29T06:43:33.104Z,62.40
2022-11-29T06:45:59.755Z,62.40
2022-11-29T06:48:26.628Z,62.40
2022-11-29T06:50:53.288Z,62.40
2022-11-29T06:53:20.170Z,62.40
2022-11-29T06:55:46.837Z,62.40
2022-11-29T06:58:13.687Z,62.40
2022-11-29T07:00:40.361Z,62.40
2022-11-29T07:03:07.071Z,62.40
2022-11-29T07:05:33.929Z,62.40
2022-11-29T07:08:00.603Z,62.40
2022-11-29T07:10:27.593Z,62.40
2022-11-29T07:12:54.482Z,62.40
2022-11-29T07:15:21.151Z,62.40
2022-11-29T07:17:48.033Z,62.40
2022-11-29T07:20:14.680Z,62.40
2022-11-29T07:22:41.313Z,62.40
2022-11-29T07:25:08.170Z,62.40
2022-11-29T07:27:35.059Z,62.40
2022-11-29T07:30:01.733Z,62.40
2022-11-29T07:32:28.379Z,62.40
2022-11-29T07:34:55.018Z,62.40
2022-11-29T07:37:21.647Z,62.40
2022-11-29T07:39:48.516Z,62.40
2022-11-29T07:42:15.391Z,63.40
2022-11-29T07:44:42.052Z,62.30
2022-11-29T07:47:08.710Z,62.30
2022-11-29T07:49:35.557Z,62.40
2022-11-29T07:52:02.533Z,62.40
2022-11-29T07:54:29.203Z,62.40
2022-11-29T07:56:55.844Z,62.30
2022-11-29T07:59:22.712Z,62.40
2022-11-29T08:01:49.445Z,62.30
2022-11-29T08:04:16.133Z,62.30
2022-11-29T08:06:43.003Z,62.30
2022-11-29T08:09:09.648Z,62.30
2022-11-29T08:11:36.283Z,62.30
2022-11-29T08:14:02.935Z,62.30
2022-11-29T08:16:29.854Z,62.30
2022-11-29T08:18:56.781Z,62.30
2022-11-29T08:21:23.458Z,62.30
2022-11-29T08:23:50.343Z,62.30
2022-11-29T08:26:17.255Z,62.20
2022-11-29T08:28:43.901Z,62.30
2022-11-29T08:31:10.799Z,62.20
2022-11-29T08:33:37.751Z,62.30
2022-11-29T08:36:04.631Z,62.20
2022-11-29T08:38:31.501Z,62.20
2022-11-29T08:40:58.163Z,62.10
2022-11-29T08:43:24.834Z,62.10
2022-11-29T08:45:51.707Z,62.10
2022-11-29T08:48:18.401Z,62.10
2022-11-29T08:50:45.070Z,62.10
2022-11-29T08:53:11.941Z,62.10
2022-11-29T08:55:38.808Z,62.10
2022-11-29T08:58:05.706Z,62.10
2022-11-29T09:00:32.559Z,62.10
2022-11-29T09:02:59.207Z,62.10
2022-11-29T09:05:25.844Z,62.10
2022-11-29T09:07:52.532Z,62.00
2022-11-29T09:10:19.475Z,62.10
2022-11-29T09:12:46.120Z,62.00
2022-11-29T09:15:12.976Z,62.00
2022-11-29T09:17:39.636Z,62.00
2022-11-29T09:20:06.516Z,62.00
2022-11-29T09:22:33.167Z,62.00
2022-11-29T09:24:59.813Z,62.00
2022-11-29T09:27:26.472Z,62.00
2022-11-29T09:29:53.115Z,62.00
2022-11-29T09:32:19.760Z,62.00
2022-11-29T09:34:46.610Z,62.00
2022-11-29T09:37:13.471Z,62.00
2022-11-29T09:39:40.197Z,62.10
2022-11-29T09:42:06.864Z,62.10
2022-11-29T09:44:33.517Z,62.00
2022-11-29T09:47:00.375Z,62.00
2022-11-29T09:49:27.264Z,62.00
2022-11-29T09:51:53.928Z,62.00
2022-11-29T09:54:20.578Z,62.00
2022-11-29T09:56:47.253Z,62.80
2022-11-29T09:59:13.918Z,61.80
2022-11-29T10:01:40.622Z,62.00
2022-11-29T10:04:07.533Z,61.90
2022-11-29T10:06:34.181Z,62.00
2022-11-29T10:09:00.821Z,61.90
2022-11-29T10:11:27.465Z,61.90
2022-11-29T10:13:54.121Z,61.90
2022-11-29T10:16:21.060Z,61.90
2022-11-29T10:18:47.729Z,61.80
2022-11-29T10:21:14.370Z,61.90
2022-11-29T10:23:41.042Z,61.90
2022-11-29T10:26:07.698Z,61.90
2022-11-29T10:28:34.350Z,61.90
2022-11-29T10:31:01.049Z,61.80
2022-11-29T10:33:27.772Z,61.80
2022-11-29T10:35:54.411Z,61.60
2022-11-29T10:38:36.294Z,61.80
2022-11-29T10:41:02.977Z,61.60
2022-11-29T10:43:29.626Z,61.80
2022-11-29T10:45:56.589Z,61.60
2022-11-29T10:48:23.286Z,61.70
2022-11-29T10:50:49.958Z,61.80
2022-11-29T10:53:16.624Z,61.70
2022-11-29T10:55:43.265Z,61.80
2022-11-29T10:58:09.908Z,61.80
2022-11-29T11:00:36.788Z,61.80
2022-11-29T11:03:03.459Z,61.70
2022-11-29T11:05:30.186Z,61.80
2022-11-29T11:07:57.099Z,61.80
2022-11-29T11:10:23.812Z,61.70
2022-11-29T11:12:50.451Z,61.80
2022-11-29T11:15:17.099Z,61.70
2022-11-29T11:17:43.728Z,61.80
2022-11-29T11:20:10.390Z,61.70
2022-11-29T11:22:37.053Z,61.60
2022-11-29T11:25:03.716Z,61.70
2022-11-29T11:27:30.355Z,61.60
2022-11-29T11:29:57.014Z,61.70
2022-11-29T11:32:23.653Z,61.70
2022-11-29T11:34:50.312Z,61.60
2022-11-29T11:37:16.972Z,61.60
2022-11-29T11:39:43.668Z,61.60
2022-11-29T11:42:10.396Z,61.70
2022-11-29T11:44:52.334Z,61.70
2022-11-29T11:47:19.089Z,61.80
2022-11-29T11:49:45.971Z,61.80
2022-11-29T11:52:12.624Z,61.80
2022-11-29T11:54:39.284Z,61.70
2022-11-29T11:57:05.943Z,61.80
2022-11-29T11:59:32.582Z,61.80
2022-11-29T12:01:59.223Z,61.80
2022-11-29T12:04:25.872Z,61.70
2022-11-29T12:06:52.522Z,61.80
2022-11-29T12:09:19.189Z,61.80
2022-11-29T12:11:46.080Z,61.80
2022-11-29T12:14:12.746Z,61.80
2022-11-29T12:16:39.391Z,61.70
2022-11-29T12:19:06.260Z,61.80
2022-11-29T12:21:32.956Z,61.80
2022-11-29T12:23:59.615Z,61.80
2022-11-29T12:26:55.519Z,61.80
2022-11-29T12:29:12.912Z,61.80
2022-11-29T12:31:39.577Z,61.80
2022-11-29T12:34:06.224Z,61.80
2022-11-29T12:36:32.878Z,61.80
2022-11-29T12:38:59.556Z,61.70
2022-11-29T12:41:26.235Z,61.80
2022-11-29T12:43:53.121Z,61.80
2022-11-29T12:46:19.794Z,61.80
2022-11-29T12:48:46.480Z,61.90
2022-11-29T12:51:13.148Z,61.80
2022-11-29T12:53:39.808Z,61.90
2022-11-29T12:56:06.470Z,61.80
2022-11-29T12:58:33.122Z,61.70
2022-11-29T13:00:59.781Z,61.80
2022-11-29T13:03:26.465Z,61.90
2022-11-29T13:05:53.196Z,61.80
2022-11-29T13:08:19.854Z,61.80
2022-11-29T13:10:46.523Z,61.90
2022-11-29T13:13:13.163Z,61.90
2022-11-29T13:15:39.841Z,61.90
2022-11-29T13:18:06.541Z,61.80
2022-11-29T13:20:33.200Z,61.80
2022-11-29T13:22:59.871Z,61.80
2022-11-29T13:25:26.508Z,61.90
2022-11-29T13:27:53.150Z,61.80
2022-11-29T13:30:19.788Z,61.90
2022-11-29T13:32:46.432Z,61.90
2022-11-29T13:35:13.071Z,61.80
2022-11-29T13:37:39.940Z,61.70
2022-11-29T13:40:06.635Z,61.90
2022-11-29T13:42:33.356Z,61.80
2022-11-29T13:44:59.996Z,61.90
2022-11-29T13:47:26.652Z,61.80
2022-11-29T13:49:53.357Z,61.80
2022-11-29T13:52:20.021Z,61.90
2022-11-29T13:54:46.973Z,61.90
2022-11-29T13:57:13.879Z,61.90
2022-11-29T13:59:47.143Z,61.90
2022-11-29T14:02:14.001Z,61.80
2022-11-29T14:04:40.656Z,61.80
2022-11-29T14:07:07.317Z,61.80
2022-11-29T14:09:34.173Z,61.90
2022-11-29T14:12:00.833Z,61.80
2022-11-29T14:14:27.493Z,61.90
2022-11-29T14:16:54.141Z,61.80
2022-11-29T14:19:20.776Z,61.80
2022-11-29T14:21:47.471Z,61.80
2022-11-29T14:24:14.118Z,61.80
2022-11-29T14:26:40.769Z,61.90
2022-11-29T14:29:07.457Z,61.80
2022-11-29T14:31:34.171Z,61.80
2022-11-29T14:34:00.857Z,61.80
2022-11-29T14:36:27.522Z,61.80
2022-11-29T14:38:54.207Z,61.80
2022-11-29T14:41:20.856Z,61.80
2022-11-29T14:43:47.487Z,61.90
2022-11-29T14:46:14.240Z,61.80
2022-11-29T14:48:40.979Z,61.90
2022-11-29T14:51:07.636Z,61.90
2022-11-29T14:53:34.288Z,61.90
2022-11-29T14:56:00.952Z,61.80
2022-11-29T14:58:27.606Z,61.80
2022-11-29T15:00:54.317Z,61.90
2022-11-29T15:03:21.030Z,61.90
2022-11-29T15:05:47.668Z,61.80
2022-11-29T15:08:14.319Z,61.80
2022-11-29T15:10:40.964Z,61.80
2022-11-29T15:13:07.630Z,61.80
2022-11-29T15:15:34.229Z,61.90
2022-11-29T15:18:00.881Z,61.90
2022-11-29T15:20:27.519Z,61.90
2022-11-29T15:22:54.151Z,61.90
2022-11-29T15:25:20.796Z,61.90
2022-11-29T15:27:47.458Z,61.90
2022-11-29T15:30:14.106Z,61.90
2022-11-29T15:32:40.757Z,61.90
2022-11-29T15:35:07.398Z,62.90
2022-11-29T15:37:34.073Z,61.90
2022-11-29T15:40:00.810Z,61.90
2022-11-29T15:42:32.519Z,61.90
2022-11-29T15:44:59.471Z,61.90
2022-11-29T15:47:26.116Z,61.90
2022-11-29T15:49:52.999Z,61.90
2022-11-29T15:52:20.722Z,61.90
2022-11-29T15:54:47.733Z,61.90
2022-11-29T15:57:14.660Z,61.90
2022-11-29T15:59:41.301Z,61.90
2022-11-29T16:02:08.020Z,61.90
2022-11-29T16:04:34.679Z,61.90
2022-11-29T16:07:01.343Z,61.90
2022-11-29T16:09:28.008Z,61.90
2022-11-29T16:11:54.871Z,62.00
2022-11-29T16:14:21.510Z,61.90
2022-11-29T16:16:48.209Z,61.90
2022-11-29T16:19:15.155Z,61.90
2022-11-29T16:21:41.807Z,61.90
2022-11-29T16:24:08.469Z,62.00
2022-11-29T16:26:35.132Z,61.90
2022-11-29T16:29:01.773Z,61.90
2022-11-29T16:31:28.540Z,62.00
2022-11-29T16:33:55.226Z,61.90
2022-11-29T16:36:21.888Z,61.90
2022-11-29T16:38:48.543Z,61.90
2022-11-29T16:41:15.195Z,61.90
2022-11-29T16:43:41.837Z,62.00
2022-11-29T16:46:08.552Z,62.00
2022-11-29T16:48:35.248Z,62.00
2022-11-29T16:51:02.108Z,62.00
2022-11-29T16:53:31.254Z,62.00
2022-11-29T16:55:57.924Z,62.00
2022-11-29T16:58:24.600Z,62.00
2022-11-29T17:00:52.359Z,61.90
2022-11-29T17:03:19.039Z,62.00
2022-11-29T17:05:45.677Z,62.00
2022-11-29T17:08:12.341Z,62.00
2022-11-29T17:10:38.985Z,62.00
2022-11-29T17:13:05.623Z,62.00
2022-11-29T17:15:32.292Z,62.00
2022-11-29T17:17:59.186Z,62.00
2022-11-29T17:20:25.849Z,62.00
2022-11-29T17:22:52.512Z,62.00
2022-11-29T17:25:19.184Z,62.00
2022-11-29T17:27:45.821Z,62.00
2022-11-29T17:30:12.677Z,62.00
2022-11-29T17:32:39.327Z,62.00
2022-11-29T17:35:05.968Z,62.00
2022-11-29T17:37:32.634Z,62.00
2022-11-29T17:39:59.317Z,61.90
2022-11-29T17:42:26.201Z,62.00
2022-11-29T17:44:52.861Z,62.10
2022-11-29T17:47:19.528Z,62.00
2022-11-29T17:49:46.415Z,62.00
2022-11-29T17:52:13.195Z,62.10
2022-11-29T17:54:39.855Z,62.00
2022-11-29T17:57:06.510Z,62.00
2022-11-29T17:59:33.371Z,62.00
2022-11-29T18:02:00.102Z,62.10
2022-11-29T18:04:26.784Z,62.00
2022-11-29T18:06:53.420Z,62.00
2022-11-29T18:09:20.185Z,62.00
2022-11-29T18:11:48.971Z,62.00
2022-11-29T18:14:16.232Z,62.00
2022-11-29T18:16:43.178Z,62.00
2022-11-29T18:19:09.871Z,62.10
2022-11-29T18:21:36.517Z,62.00
2022-11-29T18:24:03.182Z,62.10
2022-11-29T18:26:29.815Z,63.00
2022-11-29T18:28:56.477Z,62.00
2022-11-29T18:31:23.115Z,62.00
2022-11-29T18:33:49.766Z,62.10
2022-11-29T18:36:16.420Z,62.10
2022-11-29T18:38:43.291Z,62.00
2022-11-29T18:41:09.949Z,62.00
2022-11-29T18:43:37.901Z,62.00
2022-11-29T18:46:06.683Z,62.00
2022-11-29T18:48:33.333Z,62.10
2022-11-29T18:51:00.200Z,62.10
2022-11-29T18:53:27.046Z,62.10
2022-11-29T18:55:53.703Z,62.10
2022-11-29T18:58:20.557Z,62.10
2022-11-29T19:00:47.200Z,62.00
2022-11-29T19:03:13.844Z,62.00
2022-11-29T19:05:40.498Z,62.00
2022-11-29T19:08:07.150Z,62.10
2022-11-29T19:10:33.783Z,62.10
2022-11-29T19:13:00.653Z,62.10
2022-11-29T19:15:27.310Z,62.10
2022-11-29T19:17:53.943Z,62.10
2022-11-29T19:20:20.598Z,62.10
2022-11-29T19:22:47.457Z,62.10
2022-11-29T19:25:14.117Z,62.10
2022-11-29T19:27:40.755Z,62.00
2022-11-29T19:30:07.412Z,62.10
2022-11-29T19:32:34.072Z,62.10
2022-11-29T19:35:00.707Z,62.10
2022-11-29T19:37:27.554Z,62.10
2022-11-29T19:39:54.188Z,62.10
2022-11-29T19:42:20.852Z,62.10
2022-11-29T19:45:15.236Z,62.10
2022-11-29T19:47:34.140Z,62.10
2022-11-29T19:50:02.495Z,62.10
2022-11-29T19:52:29.621Z,62.10
2022-11-29T19:54:56.277Z,62.10
2022-11-29T19:57:22.950Z,62.10
2022-11-29T19:59:49.615Z,62.10
2022-11-29T20:02:16.333Z,63.10
2022-11-29T20:04:43.007Z,62.10
2022-11-29T20:07:09.641Z,62.10
2022-11-29T20:09:36.272Z,62.10
2022-11-29T20:12:02.913Z,62.10
2022-11-29T20:14:29.570Z,62.10
2022-11-29T20:16:56.435Z,62.10
2022-11-29T20:19:23.077Z,62.10
2022-11-29T20:21:49.745Z,62.10
2022-11-29T20:24:18.373Z,62.10
2022-11-29T20:26:45.043Z,62.10
2022-11-29T20:29:11.696Z,62.10
2022-11-29T20:31:38.389Z,62.10
2022-11-29T20:34:06.311Z,62.10
2022-11-29T20:36:33.181Z,62.10
2022-11-29T20:38:59.834Z,62.10
2022-11-29T20:41:26.828Z,62.20
2022-11-29T20:43:53.492Z,62.10
2022-11-29T20:46:20.189Z,62.10
2022-11-29T20:48:46.896Z,62.10
2022-11-29T20:51:13.561Z,62.10
2022-11-29T20:53:40.220Z,62.10
2022-11-29T20:56:06.863Z,62.10
2022-11-29T20:58:34.598Z,62.10
2022-11-29T21:01:01.258Z,62.20
2022-11-29T21:03:27.957Z,62.10
2022-11-29T21:05:54.863Z,62.10
2022-11-29T21:08:21.506Z,62.10
2022-11-29T21:10:48.168Z,62.10
2022-11-29T21:13:15.040Z,62.10
2022-11-29T21:15:42.788Z,62.10
2022-11-29T21:18:09.670Z,62.10
2022-11-29T21:20:36.344Z,62.10
2022-11-29T21:23:03.564Z,62.10
2022-11-29T21:25:30.213Z,62.10
2022-11-29T21:27:56.851Z,62.10
2022-11-29T21:30:23.487Z,62.10
2022-11-29T21:32:50.124Z,62.10
2022-11-29T21:35:16.781Z,62.20
2022-11-29T21:37:43.435Z,62.10
2022-11-29T21:40:10.104Z,62.20
2022-11-29T21:42:39.822Z,62.10
2022-11-29T21:45:11.675Z,62.10
2022-11-29T21:47:41.441Z,62.10
2022-11-29T21:50:08.081Z,62.10
2022-11-29T21:52:34.741Z,62.20
2022-11-29T21:55:01.601Z,62.20
2022-11-29T21:57:28.238Z,62.10
2022-11-29T21:59:54.892Z,62.10
2022-11-29T22:02:21.636Z,62.10
2022-11-29T22:04:48.789Z,62.10
2022-11-29T22:07:15.581Z,62.10
2022-11-29T22:09:42.459Z,62.20
2022-11-29T22:12:31.795Z,62.20
2022-11-29T22:14:55.727Z,62.10
2022-11-29T22:17:22.403Z,62.10
2022-11-29T22:19:49.088Z,62.10
2022-11-29T22:22:15.743Z,62.10
2022-11-29T22:24:42.408Z,62.10
2022-11-29T22:27:09.052Z,62.10
2022-11-29T22:29:35.708Z,62.20
2022-11-29T22:32:02.368Z,62.20
2022-11-29T22:34:29.098Z,62.20
2022-11-29T22:36:55.743Z,62.10
2022-11-29T22:39:22.419Z,63.10
2022-11-29T22:41:53.908Z,62.10
2022-11-29T22:44:21.499Z,62.20
2022-11-29T22:46:48.538Z,62.20
2022-11-29T22:49:15.459Z,62.20
2022-11-29T22:51:42.318Z,62.30
2022-11-29T22:54:08.961Z,62.20
2022-11-29T22:56:35.808Z,62.20
2022-11-29T22:59:02.467Z,62.20
2022-11-29T23:01:29.162Z,62.20
2022-11-29T23:03:55.810Z,62.20
2022-11-29T23:06:22.704Z,62.20
2022-11-29T23:08:49.365Z,62.10
2022-11-29T23:11:16.024Z,62.20
2022-11-29T23:13:42.890Z,62.20
2022-11-29T23:16:09.609Z,62.20
2022-11-29T23:18:36.272Z,62.20
2022-11-29T23:21:02.941Z,62.10
2022-11-29T23:23:29.920Z,62.10
2022-11-29T23:25:56.589Z,62.20
2022-11-29T23:28:23.465Z,62.10
2022-11-29T23:30:50.103Z,62.10
2022-11-29T23:33:16.760Z,62.10
2022-11-29T23:35:43.400Z,62.10
2022-11-29T23:38:10.068Z,62.20
2022-11-29T23:40:36.730Z,62.10
2022-11-29T23:43:03.383Z,62.20
2022-11-29T23:45:30.106Z,62.10
2022-11-29T23:47:56.859Z,62.20
2022-11-29T23:50:23.707Z,62.10
2022-11-29T23:52:50.356Z,62.20
2022-11-29T23:55:17.204Z,62.10
2022-11-29T23:57:43.843Z,62.10
